首页
METAR-TAF:

METAR-TAF

机场 :

馬丁尼克-亞米-凱薩國際機場

法兰西堡, 馬提尼克

纬度: 14-36N, 经度: 061-00W, 海拔: 5米

当前天气观测

该预报发布于34分钟前的16:00 UTC
风速9节,风向南转西南,在西转西南之间变化
温度 32°C
湿度 67%
气压 1012 hPa
能见度10公里或以上

METAR: TFFF 201600Z AUTO 21009KT 170V240 9999 FEW031/// ///CB 32/25 Q1012 TEMPO 4000 SHRA

时间: 12:34 (16:34 UTC)

预报

该预报发布于6小时和34分钟前的10:00 UTC
预报有效从20日的 12点(UTC)到 21日的 12点(UTC)
风速5节,风向东南
能见度10公里或以上
散云层高于3500英尺
短暂存在
从 20日的 12点(UTC)到 20日的 21点(UTC)
能見度: 4000
散云层高于1800英尺, 积雨云.
阵雨
短暂存在
从 21日的 02点(UTC)到 21日的 09点(UTC)
能見度: 4000
散云层高于2000英尺, 塔状积云.
阵雨

TAF: TFFF 201000Z 2012/2112 13005KT 9999 SCT035 TEMPO 2012/2021 4000 SHRA SCT018CB TEMPO 2102/2109 4000 SHRA SCT020TCU

超过4000个机场的气象观测和天气预报(METAR&TAF报告)。

可查询的气象台以黄色和红色小点在地图上表示。

将鼠标移到小点上方,可查看气象台名称。

然后点击查看天气观测和预报。

如需切换地图:点击带黑十字的绿色按钮放大地图;点击带横线的绿色按钮缩小地图;或者点击绿色箭头查看邻近地区的地图。


METAR-TAF: